createdAt,value
2022-07-29T00:01:20.573Z,18.98
2022-07-29T00:03:52.784Z,18.94
2022-07-29T00:06:25.406Z,18.87
2022-07-29T00:08:57.380Z,18.81
2022-07-29T00:11:29.406Z,18.77
2022-07-29T00:14:01.540Z,18.73
2022-07-29T00:16:33.773Z,18.64
2022-07-29T00:19:07.904Z,18.50
2022-07-29T00:21:40.524Z,18.43
2022-07-29T00:24:13.074Z,18.34
2022-07-29T00:26:45.315Z,18.17
2022-07-29T00:29:33.594Z,18.05
2022-07-29T00:31:51.667Z,17.92
2022-07-29T00:34:41.068Z,17.80
2022-07-29T00:37:13.046Z,17.69
2022-07-29T00:39:45.364Z,17.58
2022-07-29T00:42:17.690Z,17.46
2022-07-29T00:44:50.042Z,17.38
2022-07-29T00:47:22.266Z,17.30
2022-07-29T00:49:54.270Z,17.22
2022-07-29T00:52:26.784Z,17.17
2022-07-29T00:54:59.382Z,17.15
2022-07-29T00:57:33.604Z,17.26
2022-07-29T01:00:07.623Z,17.17
2022-07-29T01:02:39.730Z,17.15
2022-07-29T01:05:14.183Z,17.17
2022-07-29T01:07:48.324Z,17.10
2022-07-29T01:10:22.334Z,17.03
2022-07-29T01:12:56.994Z,17.00
2022-07-29T01:15:30.806Z,16.95
2022-07-29T01:18:22.275Z,16.88
2022-07-29T01:21:15.196Z,16.79
2022-07-29T01:24:20.200Z,16.76
2022-07-29T01:26:58.706Z,16.72
2022-07-29T01:29:42.610Z,16.74
2022-07-29T01:32:34.264Z,16.68
2022-07-29T01:35:09.219Z,16.62
2022-07-29T01:37:46.902Z,16.55
2022-07-29T01:40:39.747Z,16.49
2022-07-29T01:43:14.539Z,16.46
2022-07-29T01:45:52.528Z,16.42
2022-07-29T01:48:27.347Z,16.42
2022-07-29T01:51:02.373Z,16.39
2022-07-29T01:53:38.309Z,16.46
2022-07-29T01:56:12.442Z,16.51
2022-07-29T01:58:46.975Z,16.42
2022-07-29T02:01:21.029Z,16.45
2022-07-29T02:03:55.152Z,16.48
2022-07-29T02:06:29.351Z,16.47
2022-07-29T02:09:02.471Z,16.46
2022-07-29T02:11:37.678Z,16.51
2022-07-29T02:14:11.819Z,16.50
2022-07-29T02:16:45.929Z,16.52
2022-07-29T02:19:20.618Z,16.55
2022-07-29T02:21:55.494Z,16.54
2022-07-29T02:24:28.752Z,16.55
2022-07-29T02:27:04.369Z,16.61
2022-07-29T02:29:39.348Z,16.65
2022-07-29T02:32:14.714Z,16.65
2022-07-29T02:34:49.036Z,16.67
2022-07-29T02:37:22.114Z,16.70
2022-07-29T02:39:56.222Z,16.74
2022-07-29T02:42:30.426Z,16.82
2022-07-29T02:45:02.392Z,16.85
2022-07-29T02:47:41.418Z,16.91
2022-07-29T02:50:17.181Z,16.96
2022-07-29T02:53:12.977Z,17.02
2022-07-29T02:56:00.115Z,17.08
2022-07-29T02:58:34.802Z,17.14
2022-07-29T03:01:07.500Z,17.18
2022-07-29T03:03:41.711Z,17.38
2022-07-29T03:06:28.823Z,17.33
2022-07-29T03:08:51.653Z,17.36
2022-07-29T03:11:49.076Z,17.39
2022-07-29T03:13:58.576Z,17.47
2022-07-29T03:16:31.795Z,17.53
2022-07-29T03:19:05.326Z,17.56
2022-07-29T03:21:37.527Z,17.64
2022-07-29T03:24:10.971Z,17.65
2022-07-29T03:26:43.671Z,17.67
2022-07-29T03:29:15.867Z,17.74
2022-07-29T03:31:49.800Z,17.82
2022-07-29T03:34:23.486Z,17.82
2022-07-29T03:36:55.547Z,17.86
2022-07-29T03:39:29.771Z,17.92
2022-07-29T03:42:03.057Z,17.97
2022-07-29T03:44:36.814Z,18.05
2022-07-29T03:47:11.440Z,18.13
2022-07-29T03:49:44.343Z,18.23
2022-07-29T03:52:16.815Z,18.33
2022-07-29T03:54:50.215Z,18.38
2022-07-29T03:57:25.463Z,18.46
2022-07-29T03:59:58.395Z,18.55
2022-07-29T04:02:30.936Z,18.62
2022-07-29T04:05:03.374Z,18.68
2022-07-29T04:07:35.356Z,18.76
2022-07-29T04:10:08.604Z,18.80
2022-07-29T04:12:40.913Z,18.87
2022-07-29T04:15:14.458Z,18.94
2022-07-29T04:17:46.742Z,19.02
2022-07-29T04:20:20.820Z,19.03
2022-07-29T04:22:53.431Z,19.13
2022-07-29T04:25:25.847Z,19.18
2022-07-29T04:28:04.159Z,19.20
2022-07-29T04:30:37.899Z,19.29
2022-07-29T04:33:10.604Z,19.29
2022-07-29T04:35:50.031Z,19.31
2022-07-29T04:38:17.518Z,19.33
2022-07-29T04:40:50.062Z,19.33
2022-07-29T04:43:23.428Z,19.39
2022-07-29T04:45:56.260Z,19.39
2022-07-29T04:48:29.313Z,19.42
2022-07-29T04:51:01.806Z,19.44
2022-07-29T04:53:34.107Z,19.46
2022-07-29T04:56:07.121Z,19.48
2022-07-29T04:58:39.398Z,19.54
2022-07-29T05:01:11.922Z,19.57
2022-07-29T05:03:44.123Z,19.64
2022-07-29T05:06:16.663Z,19.74
2022-07-29T05:08:48.751Z,19.80
2022-07-29T05:11:22.503Z,19.82
2022-07-29T05:13:54.960Z,19.87
2022-07-29T05:16:27.547Z,19.90
2022-07-29T05:19:00.095Z,19.98
2022-07-29T05:21:33.025Z,20.07
2022-07-29T05:24:07.128Z,20.19
2022-07-29T05:26:39.804Z,20.25
2022-07-29T05:29:44.297Z,20.51
2022-07-29T05:31:45.986Z,20.42
2022-07-29T05:34:19.170Z,20.55
2022-07-29T05:36:52.026Z,20.67
2022-07-29T05:39:47.487Z,20.74
2022-07-29T05:41:58.465Z,20.84
2022-07-29T05:44:30.444Z,20.92
2022-07-29T05:47:02.612Z,21.02
2022-07-29T05:49:35.163Z,20.98
2022-07-29T05:52:07.348Z,20.99
2022-07-29T05:54:39.542Z,21.05
2022-07-29T05:57:13.910Z,21.19
2022-07-29T05:59:46.058Z,21.31
2022-07-29T06:02:19.324Z,21.50
2022-07-29T06:04:52.808Z,21.64
2022-07-29T06:07:25.656Z,21.64
2022-07-29T06:09:57.834Z,21.71
2022-07-29T06:12:30.019Z,21.79
2022-07-29T06:15:02.291Z,21.92
2022-07-29T06:17:34.823Z,21.98
2022-07-29T06:20:10.733Z,22.07
2022-07-29T06:22:42.327Z,22.11
2022-07-29T06:25:14.795Z,22.24
2022-07-29T06:27:47.124Z,22.40
2022-07-29T06:30:19.292Z,22.61
2022-07-29T06:32:51.647Z,22.74
2022-07-29T06:35:38.454Z,22.87
2022-07-29T06:37:59.525Z,22.99
2022-07-29T06:40:49.474Z,23.15
2022-07-29T06:43:21.891Z,23.25
2022-07-29T06:45:55.375Z,23.25
2022-07-29T06:48:27.819Z,23.25
2022-07-29T06:51:00.212Z,23.20
2022-07-29T06:53:33.520Z,23.34
2022-07-29T06:56:09.296Z,23.38
2022-07-29T06:58:42.231Z,23.35
2022-07-29T07:01:14.505Z,23.31
2022-07-29T07:03:47.424Z,23.48
2022-07-29T07:06:19.993Z,23.64
2022-07-29T07:08:52.752Z,23.77
2022-07-29T07:11:25.504Z,23.83
2022-07-29T07:14:02.688Z,23.72
2022-07-29T07:16:32.764Z,23.65
2022-07-29T07:19:05.922Z,23.71
2022-07-29T07:21:38.333Z,23.74
2022-07-29T07:24:10.855Z,23.82
2022-07-29T07:26:42.934Z,23.97
2022-07-29T07:29:15.801Z,24.18
2022-07-29T07:31:48.403Z,24.19
2022-07-29T07:34:28.391Z,24.20
2022-07-29T07:36:55.207Z,24.28
2022-07-29T07:39:27.890Z,24.53
2022-07-29T07:42:01.043Z,24.65
2022-07-29T07:44:42.413Z,24.62
2022-07-29T07:47:08.780Z,24.43
2022-07-29T07:49:41.901Z,24.33
2022-07-29T07:52:18.310Z,24.25
2022-07-29T07:54:51.649Z,24.30
2022-07-29T07:57:24.059Z,24.52
2022-07-29T07:59:56.470Z,24.72
2022-07-29T08:02:29.372Z,24.64
2022-07-29T08:05:01.693Z,24.55
2022-07-29T08:07:34.276Z,24.39
2022-07-29T08:10:07.819Z,24.40
2022-07-29T08:12:40.294Z,24.38
2022-07-29T08:15:12.729Z,24.34
2022-07-29T08:17:45.047Z,24.27
2022-07-29T08:20:17.254Z,24.27
2022-07-29T08:22:49.841Z,24.32
2022-07-29T08:25:22.515Z,24.45
2022-07-29T08:27:54.845Z,24.54
2022-07-29T08:30:27.496Z,24.66
2022-07-29T08:33:00.672Z,24.86
2022-07-29T08:35:35.727Z,25.02
2022-07-29T08:38:07.757Z,25.13
2022-07-29T08:40:39.897Z,25.07
2022-07-29T08:43:12.117Z,25.03
2022-07-29T08:45:50.294Z,25.12
2022-07-29T08:48:24.893Z,25.27
2022-07-29T08:50:57.332Z,25.48
2022-07-29T08:53:30.559Z,25.86
2022-07-29T08:56:04.593Z,25.64
2022-07-29T08:58:38.342Z,25.38
2022-07-29T09:01:13.907Z,25.21
2022-07-29T09:03:48.508Z,25.12
2022-07-29T09:06:23.018Z,25.13
2022-07-29T09:08:56.599Z,25.04
2022-07-29T09:11:29.728Z,25.02
2022-07-29T09:14:01.752Z,25.09
2022-07-29T09:16:54.378Z,25.23
2022-07-29T09:19:35.919Z,25.44
2022-07-29T09:22:11.592Z,25.61
2022-07-29T09:24:49.231Z,25.76
2022-07-29T09:27:28.262Z,25.75
2022-07-29T09:30:11.223Z,25.52
2022-07-29T09:33:03.891Z,25.28
2022-07-29T09:35:36.508Z,25.02
2022-07-29T09:38:16.150Z,25.11
2022-07-29T09:40:51.587Z,25.44
2022-07-29T09:43:23.654Z,25.69
2022-07-29T09:45:56.097Z,26.02
2022-07-29T09:48:28.862Z,26.19
2022-07-29T09:51:03.244Z,26.24
2022-07-29T09:53:38.166Z,26.29
2022-07-29T09:56:11.779Z,26.37
2022-07-29T09:58:44.354Z,26.61
2022-07-29T10:01:17.090Z,26.93
2022-07-29T10:03:56.131Z,26.95
2022-07-29T10:06:28.237Z,26.92
2022-07-29T10:09:14.135Z,26.81
2022-07-29T10:11:49.978Z,26.91
2022-07-29T10:14:22.586Z,26.78
2022-07-29T10:16:55.390Z,26.66
2022-07-29T10:19:27.966Z,26.57
2022-07-29T10:22:02.125Z,26.49
2022-07-29T10:24:35.341Z,26.46
2022-07-29T10:27:10.442Z,26.32
2022-07-29T10:29:42.768Z,26.33
2022-07-29T10:32:33.606Z,26.35
2022-07-29T10:35:15.146Z,26.52
2022-07-29T10:38:19.068Z,26.63
2022-07-29T10:41:24.119Z,26.70
2022-07-29T10:44:16.247Z,26.74
2022-07-29T10:46:47.253Z,26.75
2022-07-29T10:49:30.397Z,26.88
2022-07-29T10:52:12.190Z,27.13
2022-07-29T10:54:51.265Z,27.44
2022-07-29T10:57:52.518Z,27.51
2022-07-29T11:00:14.295Z,27.52
2022-07-29T11:02:50.631Z,27.49
2022-07-29T11:05:24.472Z,27.50
2022-07-29T11:08:21.106Z,27.89
2022-07-29T11:10:56.598Z,27.78
2022-07-29T11:13:52.388Z,27.91
2022-07-29T11:16:25.709Z,27.75
2022-07-29T11:19:26.477Z,27.73
2022-07-29T11:22:05.411Z,27.66
2022-07-29T11:24:33.444Z,28.02
2022-07-29T11:27:23.228Z,28.45
2022-07-29T11:29:58.625Z,29.14
2022-07-29T11:32:44.845Z,29.74
2022-07-29T11:35:38.556Z,29.71
2022-07-29T11:38:27.902Z,29.05
2022-07-29T11:41:27.155Z,28.47
2022-07-29T11:44:02.252Z,28.01
2022-07-29T11:46:53.933Z,27.76
2022-07-29T11:49:32.035Z,27.63
2022-07-29T11:52:04.094Z,27.73
2022-07-29T11:54:38.824Z,27.81
2022-07-29T11:57:11.870Z,28.82
2022-07-29T11:59:46.058Z,30.33
2022-07-29T12:02:36.411Z,32.39
2022-07-29T12:04:55.628Z,33.18
2022-07-29T12:07:36.317Z,33.44
2022-07-29T12:10:11.653Z,32.05
2022-07-29T12:12:44.298Z,31.17
2022-07-29T12:15:22.257Z,30.34
2022-07-29T12:17:55.237Z,29.69
2022-07-29T12:20:30.691Z,29.32
2022-07-29T12:23:06.372Z,29.02
2022-07-29T12:25:38.695Z,29.87
2022-07-29T12:28:14.374Z,32.60
2022-07-29T12:30:52.591Z,34.60
2022-07-29T12:33:28.522Z,34.39
2022-07-29T12:36:07.321Z,33.73
2022-07-29T12:38:38.256Z,32.80
2022-07-29T12:41:10.832Z,32.13
2022-07-29T12:43:45.798Z,31.29
2022-07-29T12:46:18.569Z,31.51
2022-07-29T12:48:54.942Z,33.71
2022-07-29T12:51:37.667Z,35.77
2022-07-29T12:54:12.175Z,36.96
2022-07-29T12:56:46.384Z,38.22
2022-07-29T12:59:19.386Z,40.43
2022-07-29T13:01:53.054Z,41.94
2022-07-29T13:04:31.883Z,39.74
2022-07-29T13:07:07.501Z,41.31
2022-07-29T13:09:42.328Z,41.11
2022-07-29T13:12:16.509Z,39.31
2022-07-29T13:14:50.867Z,37.33
2022-07-29T13:17:24.999Z,35.33
2022-07-29T13:20:13.253Z,33.72
2022-07-29T13:22:46.705Z,35.77
2022-07-29T13:25:33.328Z,38.16
2022-07-29T13:28:05.937Z,40.70
2022-07-29T13:30:38.674Z,42.24
2022-07-29T13:33:12.969Z,43.38
2022-07-29T13:35:45.253Z,43.95
2022-07-29T13:38:18.297Z,44.03
2022-07-29T13:40:52.298Z,44.52
2022-07-29T13:43:24.454Z,45.43
2022-07-29T13:45:57.671Z,46.02
2022-07-29T13:48:30.348Z,46.34
2022-07-29T13:51:02.804Z,46.14
2022-07-29T13:53:35.863Z,46.78
2022-07-29T13:56:08.290Z,47.41
2022-07-29T13:58:40.267Z,47.86
2022-07-29T14:01:12.801Z,48.14
2022-07-29T14:03:45.830Z,47.11
2022-07-29T14:06:18.404Z,45.86
2022-07-29T14:08:52.210Z,44.94
2022-07-29T14:11:24.965Z,42.62
2022-07-29T14:13:57.621Z,40.21
2022-07-29T14:16:30.032Z,37.99
2022-07-29T14:19:02.283Z,36.21
2022-07-29T14:21:35.777Z,34.89
2022-07-29T14:24:17.756Z,34.53
2022-07-29T14:26:46.278Z,36.54
2022-07-29T14:29:19.105Z,36.63
2022-07-29T14:31:51.279Z,38.08
2022-07-29T14:34:23.883Z,39.22
2022-07-29T14:36:56.538Z,38.07
2022-07-29T14:39:31.908Z,36.18
2022-07-29T14:42:02.651Z,34.53
2022-07-29T14:44:34.808Z,33.01
2022-07-29T14:47:08.240Z,32.27
2022-07-29T14:49:40.828Z,34.12
2022-07-29T14:52:13.482Z,36.54
2022-07-29T14:54:45.954Z,38.95
2022-07-29T14:57:18.940Z,41.26
2022-07-29T14:59:51.729Z,42.97
2022-07-29T15:02:40.080Z,44.47
2022-07-29T15:04:58.575Z,45.16
2022-07-29T15:07:31.375Z,44.74
2022-07-29T15:10:05.428Z,42.62
2022-07-29T15:12:41.685Z,41.30
2022-07-29T15:15:15.197Z,41.29
2022-07-29T15:17:47.433Z,41.73
2022-07-29T15:20:20.604Z,41.99
2022-07-29T15:22:52.830Z,40.23
2022-07-29T15:25:28.313Z,37.97
2022-07-29T15:28:02.219Z,36.11
2022-07-29T15:30:35.110Z,33.71
2022-07-29T15:33:09.191Z,32.39
2022-07-29T15:35:41.778Z,30.87
2022-07-29T15:38:14.256Z,29.80
2022-07-29T15:40:47.551Z,29.04
2022-07-29T15:43:19.924Z,28.56
2022-07-29T15:46:10.198Z,28.18
2022-07-29T15:48:43.159Z,27.87
2022-07-29T15:51:15.698Z,27.35
2022-07-29T15:53:53.618Z,26.95
2022-07-29T15:56:22.115Z,26.64
2022-07-29T15:58:54.860Z,26.39
2022-07-29T16:01:27.474Z,26.19
2022-07-29T16:04:00.001Z,25.95
2022-07-29T16:06:32.356Z,25.88
2022-07-29T16:09:04.705Z,25.78
2022-07-29T16:11:37.144Z,25.67
2022-07-29T16:14:11.184Z,25.55
2022-07-29T16:16:43.625Z,25.42
2022-07-29T16:19:15.963Z,25.34
2022-07-29T16:21:48.432Z,25.17
2022-07-29T16:24:20.793Z,25.00
2022-07-29T16:26:53.177Z,24.78
2022-07-29T16:29:25.990Z,24.57
2022-07-29T16:31:58.201Z,24.33
2022-07-29T16:34:30.681Z,24.14
2022-07-29T16:37:03.461Z,23.93
2022-07-29T16:39:35.717Z,23.73
2022-07-29T16:42:08.413Z,23.62
2022-07-29T16:44:40.843Z,23.52
2022-07-29T16:47:13.373Z,23.45
2022-07-29T16:49:45.928Z,23.38
2022-07-29T16:52:18.219Z,23.29
2022-07-29T16:54:50.936Z,23.25
2022-07-29T16:57:23.429Z,23.21
2022-07-29T16:59:55.462Z,23.14
2022-07-29T17:02:27.818Z,23.09
2022-07-29T17:05:00.491Z,23.04
2022-07-29T17:07:34.661Z,22.94
2022-07-29T17:10:11.558Z,22.89
2022-07-29T17:12:43.586Z,22.82
2022-07-29T17:15:17.881Z,22.80
2022-07-29T17:17:55.361Z,22.83
2022-07-29T17:20:24.573Z,22.80
2022-07-29T17:22:56.911Z,22.76
2022-07-29T17:25:29.767Z,22.67
2022-07-29T17:28:01.938Z,22.55
2022-07-29T17:30:34.394Z,22.43
2022-07-29T17:33:06.803Z,22.30
2022-07-29T17:35:56.254Z,22.20
2022-07-29T17:38:28.688Z,22.06
2022-07-29T17:41:00.966Z,21.93
2022-07-29T17:43:33.879Z,21.78
2022-07-29T17:46:08.380Z,21.66
2022-07-29T17:48:41.495Z,21.60
2022-07-29T17:51:13.694Z,21.49
2022-07-29T17:53:46.141Z,21.42
2022-07-29T17:56:18.563Z,21.37
2022-07-29T17:58:50.834Z,21.25
2022-07-29T18:01:23.058Z,21.13
2022-07-29T18:03:59.789Z,21.04
2022-07-29T18:06:29.247Z,21.02
2022-07-29T18:09:01.460Z,20.91
2022-07-29T18:11:33.641Z,20.85
2022-07-29T18:14:05.744Z,20.91
2022-07-29T18:16:38.877Z,20.94
2022-07-29T18:19:10.909Z,20.92
2022-07-29T18:21:52.012Z,20.93
2022-07-29T18:24:16.890Z,20.95
2022-07-29T18:26:48.967Z,20.91
2022-07-29T18:29:21.110Z,20.86
2022-07-29T18:31:53.093Z,20.74
2022-07-29T18:34:25.163Z,20.69
2022-07-29T18:36:57.689Z,20.53
2022-07-29T18:39:30.149Z,20.45
2022-07-29T18:42:02.333Z,20.33
2022-07-29T18:44:34.444Z,20.24
2022-07-29T18:47:08.129Z,20.12
2022-07-29T18:49:42.111Z,20.05
2022-07-29T18:52:18.584Z,19.94
2022-07-29T18:54:50.937Z,19.85
2022-07-29T18:57:54.707Z,19.82
2022-07-29T18:59:58.247Z,19.89
2022-07-29T19:02:30.317Z,19.88
2022-07-29T19:05:02.404Z,19.83
2022-07-29T19:07:34.614Z,19.83
2022-07-29T19:10:07.474Z,19.77
2022-07-29T19:12:40.804Z,19.70
2022-07-29T19:15:13.097Z,19.68
2022-07-29T19:17:48.197Z,19.65
2022-07-29T19:20:20.433Z,19.67
2022-07-29T19:22:52.589Z,19.68
2022-07-29T19:25:24.726Z,19.61
2022-07-29T19:27:56.763Z,19.58
2022-07-29T19:30:28.762Z,19.58
2022-07-29T19:33:02.921Z,19.57
2022-07-29T19:35:35.156Z,19.57
2022-07-29T19:38:07.189Z,19.51
2022-07-29T19:40:42.233Z,19.54
2022-07-29T19:43:50.504Z,19.55
2022-07-29T19:45:48.285Z,19.51
2022-07-29T19:48:20.350Z,19.51
2022-07-29T19:50:52.345Z,19.52
2022-07-29T19:53:24.848Z,19.50
2022-07-29T19:55:56.879Z,19.52
2022-07-29T19:58:29.052Z,19.45
2022-07-29T20:01:01.039Z,19.41
2022-07-29T20:03:33.181Z,19.38
2022-07-29T20:06:05.342Z,19.36
2022-07-29T20:08:37.847Z,19.29
2022-07-29T20:11:10.229Z,19.32
2022-07-29T20:13:42.282Z,19.28
2022-07-29T20:16:14.489Z,19.23
2022-07-29T20:18:46.420Z,19.16
2022-07-29T20:21:19.068Z,19.18
2022-07-29T20:23:51.304Z,19.12
2022-07-29T20:26:24.107Z,19.13
2022-07-29T20:28:56.285Z,19.07
2022-07-29T20:31:30.872Z,19.03
2022-07-29T20:34:03.485Z,19.09
2022-07-29T20:36:35.701Z,19.13
2022-07-29T20:39:08.076Z,19.07
2022-07-29T20:41:40.213Z,19.02
2022-07-29T20:44:12.659Z,19.02
2022-07-29T20:46:45.075Z,18.99
2022-07-29T20:49:17.555Z,18.89
2022-07-29T20:51:50.303Z,18.85
2022-07-29T20:54:29.047Z,18.85
2022-07-29T20:57:02.768Z,18.86
2022-07-29T20:59:36.128Z,18.93
2022-07-29T21:02:08.805Z,18.75
2022-07-29T21:04:43.384Z,18.75
2022-07-29T21:07:15.529Z,18.72
2022-07-29T21:09:47.670Z,18.70
2022-07-29T21:12:19.713Z,18.68
2022-07-29T21:14:52.237Z,18.67
2022-07-29T21:17:24.664Z,18.66
2022-07-29T21:19:57.030Z,18.61
2022-07-29T21:22:29.133Z,18.57
2022-07-29T21:25:02.311Z,18.59
2022-07-29T21:27:52.119Z,18.56
2022-07-29T21:30:24.414Z,18.50
2022-07-29T21:32:56.583Z,18.43
2022-07-29T21:36:02.014Z,18.37
2022-07-29T21:38:02.839Z,18.35
2022-07-29T21:40:35.214Z,18.32
2022-07-29T21:43:07.144Z,18.26
2022-07-29T21:45:39.255Z,18.19
2022-07-29T21:48:11.965Z,18.14
2022-07-29T21:50:44.598Z,18.13
2022-07-29T21:53:17.602Z,18.10
2022-07-29T21:55:51.642Z,18.10
2022-07-29T21:58:25.518Z,18.08
2022-07-29T22:00:57.694Z,18.01
2022-07-29T22:03:30.002Z,18.01
2022-07-29T22:06:01.992Z,17.97
2022-07-29T22:08:34.555Z,17.91
2022-07-29T22:11:06.706Z,17.88
2022-07-29T22:13:38.986Z,17.80
2022-07-29T22:16:12.614Z,17.72
2022-07-29T22:18:48.423Z,17.65
2022-07-29T22:21:20.719Z,17.60
2022-07-29T22:23:53.094Z,17.51
2022-07-29T22:26:25.380Z,17.52
2022-07-29T22:28:57.590Z,17.47
2022-07-29T22:31:29.886Z,17.39
2022-07-29T22:34:02.533Z,17.33
2022-07-29T22:36:34.869Z,17.27
2022-07-29T22:39:07.276Z,17.28
2022-07-29T22:41:39.718Z,17.24
2022-07-29T22:44:12.072Z,17.23
2022-07-29T22:46:44.459Z,17.21
2022-07-29T22:49:17.093Z,17.21
2022-07-29T22:51:49.742Z,17.15
2022-07-29T22:54:21.930Z,17.13
2022-07-29T22:56:54.097Z,17.10
2022-07-29T22:59:26.203Z,17.03
2022-07-29T23:01:58.203Z,16.99
2022-07-29T23:04:30.475Z,16.94
2022-07-29T23:07:02.775Z,16.86
2022-07-29T23:09:35.195Z,16.81
2022-07-29T23:12:08.249Z,16.76
2022-07-29T23:14:40.660Z,16.70
2022-07-29T23:17:12.891Z,16.65
2022-07-29T23:19:44.872Z,16.60
2022-07-29T23:22:17.196Z,16.55
2022-07-29T23:24:50.665Z,16.54
2022-07-29T23:27:22.641Z,16.55
2022-07-29T23:29:55.178Z,16.54
2022-07-29T23:32:27.065Z,16.48
2022-07-29T23:34:59.262Z,16.51
2022-07-29T23:37:33.074Z,16.52
2022-07-29T23:40:09.680Z,16.49
2022-07-29T23:42:42.787Z,16.43
2022-07-29T23:45:15.570Z,16.42
2022-07-29T23:47:47.661Z,16.38
2022-07-29T23:50:19.757Z,16.36
2022-07-29T23:52:51.655Z,16.37
2022-07-29T23:55:36.479Z,16.32
2022-07-29T23:57:57.439Z,16.31
